sensor_id;sensor_type;location;lat;lon;timestamp;temperature;humidity
2657;DHT22;1338;48.176;11.792;2024-01-30T00:00:08;-1.50;1.00
2657;DHT22;1338;48.176;11.792;2024-01-30T00:02:42;-1.50;1.00
2657;DHT22;1338;48.176;11.792;2024-01-30T00:05:12;-1.60;1.00
2657;DHT22;1338;48.176;11.792;2024-01-30T00:07:43;-1.60;1.00
2657;DHT22;1338;48.176;11.792;2024-01-30T00:10:15;-1.90;1.00
2657;DHT22;1338;48.176;11.792;2024-01-30T00:12:44;-2.00;1.00
2657;DHT22;1338;48.176;11.792;2024-01-30T00:15:14;-1.90;1.00
2657;DHT22;1338;48.176;11.792;2024-01-30T00:17:44;-1.90;1.00
2657;DHT22;1338;48.176;11.792;2024-01-30T00:20:14;-2.00;31.10
2657;DHT22;1338;48.176;11.792;2024-01-30T00:22:44;-2.30;1.00
2657;DHT22;1338;48.176;11.792;2024-01-30T00:25:13;-2.30;99.90
2657;DHT22;1338;48.176;11.792;2024-01-30T00:27:41;-2.30;99.90
2657;DHT22;1338;48.176;11.792;2024-01-30T00:30:13;-2.30;99.90
2657;DHT22;1338;48.176;11.792;2024-01-30T00:32:43;-2.20;1.00
2657;DHT22;1338;48.176;11.792;2024-01-30T00:35:13;-2.30;1.00
2657;DHT22;1338;48.176;11.792;2024-01-30T00:37:41;-2.50;99.90
2657;DHT22;1338;48.176;11.792;2024-01-30T00:40:13;-2.40;99.90
2657;DHT22;1338;48.176;11.792;2024-01-30T00:42:44;-2.40;99.90
2657;DHT22;1338;48.176;11.792;2024-01-30T00:45:15;-2.40;99.90
2657;DHT22;1338;48.176;11.792;2024-01-30T00:47:47;-2.40;99.90
2657;DHT22;1338;48.176;11.792;2024-01-30T00:50:16;-2.40;99.90
2657;DHT22;1338;48.176;11.792;2024-01-30T00:52:44;-2.40;99.90
2657;DHT22;1338;48.176;11.792;2024-01-30T00:55:13;-2.30;99.90
2657;DHT22;1338;48.176;11.792;2024-01-30T00:57:43;-2.40;99.90
2657;DHT22;1338;48.176;11.792;2024-01-30T01:00:13;-2.20;99.90
2657;DHT22;1338;48.176;11.792;2024-01-30T01:02:44;-2.30;99.90
2657;DHT22;1338;48.176;11.792;2024-01-30T01:05:14;-2.30;99.90
2657;DHT22;1338;48.176;11.792;2024-01-30T01:07:43;-2.20;99.90
2657;DHT22;1338;48.176;11.792;2024-01-30T01:10:14;-2.10;99.90
2657;DHT22;1338;48.176;11.792;2024-01-30T01:12:44;-2.10;99.90
2657;DHT22;1338;48.176;11.792;2024-01-30T01:15:15;-2.20;99.90
2657;DHT22;1338;48.176;11.792;2024-01-30T01:17:44;-2.20;99.90
2657;DHT22;1338;48.176;11.792;2024-01-30T01:20:15;-2.20;99.90
2657;DHT22;1338;48.176;11.792;2024-01-30T01:22:45;-2.20;99.90
2657;DHT22;1338;48.176;11.792;2024-01-30T01:25:13;-2.40;90.20
2657;DHT22;1338;48.176;11.792;2024-01-30T01:27:44;-2.40;50.30
2657;DHT22;1338;48.176;11.792;2024-01-30T01:30:18;-2.50;34.20
2657;DHT22;1338;48.176;11.792;2024-01-30T01:32:49;-2.50;36.90
2657;DHT22;1338;48.176;11.792;2024-01-30T01:35:24;-2.50;54.10
2657;DHT22;1338;48.176;11.792;2024-01-30T01:37:56;-2.50;60.10
2657;DHT22;1338;48.176;11.792;2024-01-30T01:40:27;-2.50;83.80
2657;DHT22;1338;48.176;11.792;2024-01-30T01:42:56;-2.40;99.90
2657;DHT22;1338;48.176;11.792;2024-01-30T01:45:27;-2.30;99.90
2657;DHT22;1338;48.176;11.792;2024-01-30T01:47:56;-2.50;60.10
2657;DHT22;1338;48.176;11.792;2024-01-30T01:50:30;-2.40;99.90
2657;DHT22;1338;48.176;11.792;2024-01-30T01:53:00;-2.40;99.90
2657;DHT22;1338;48.176;11.792;2024-01-30T01:55:29;-2.20;99.90
2657;DHT22;1338;48.176;11.792;2024-01-30T01:58:01;-2.20;99.90
2657;DHT22;1338;48.176;11.792;2024-01-30T02:00:30;-2.10;51.70
2657;DHT22;1338;48.176;11.792;2024-01-30T02:03:03;-2.10;15.70
2657;DHT22;1338;48.176;11.792;2024-01-30T02:05:36;-2.10;1.00
2657;DHT22;1338;48.176;11.792;2024-01-30T02:08:06;-2.20;1.00
2657;DHT22;1338;48.176;11.792;2024-01-30T02:10:44;-2.10;1.00
2657;DHT22;1338;48.176;11.792;2024-01-30T02:13:12;-2.20;1.00
2657;DHT22;1338;48.176;11.792;2024-01-30T02:15:43;-2.20;1.00
2657;DHT22;1338;48.176;11.792;2024-01-30T02:18:12;-2.20;1.00
2657;DHT22;1338;48.176;11.792;2024-01-30T02:20:53;-2.30;1.00
2657;DHT22;1338;48.176;11.792;2024-01-30T02:23:25;-2.30;1.00
2657;DHT22;1338;48.176;11.792;2024-01-30T02:25:56;-2.20;1.00
2657;DHT22;1338;48.176;11.792;2024-01-30T02:28:26;-2.10;1.00
2657;DHT22;1338;48.176;11.792;2024-01-30T02:30:56;-2.10;1.00
2657;DHT22;1338;48.176;11.792;2024-01-30T02:33:28;-2.00;1.00
2657;DHT22;1338;48.176;11.792;2024-01-30T02:36:01;-2.00;1.00
2657;DHT22;1338;48.176;11.792;2024-01-30T02:38:32;-2.00;1.00
2657;DHT22;1338;48.176;11.792;2024-01-30T02:41:01;-1.90;1.00
2657;DHT22;1338;48.176;11.792;2024-01-30T02:43:29;-2.00;1.00
2657;DHT22;1338;48.176;11.792;2024-01-30T02:45:58;-2.00;1.00
2657;DHT22;1338;48.176;11.792;2024-01-30T02:48:29;-2.10;1.00
2657;DHT22;1338;48.176;11.792;2024-01-30T02:50:59;-2.10;1.00
2657;DHT22;1338;48.176;11.792;2024-01-30T02:53:28;-2.30;1.00
2657;DHT22;1338;48.176;11.792;2024-01-30T02:55:59;-2.40;1.00
2657;DHT22;1338;48.176;11.792;2024-01-30T02:58:28;-2.40;1.00
2657;DHT22;1338;48.176;11.792;2024-01-30T03:00:58;-2.40;1.00
2657;DHT22;1338;48.176;11.792;2024-01-30T03:03:28;-2.50;1.00
2657;DHT22;1338;48.176;11.792;2024-01-30T03:05:57;-2.30;1.00
2657;DHT22;1338;48.176;11.792;2024-01-30T03:08:26;-2.20;1.00
2657;DHT22;1338;48.176;11.792;2024-01-30T03:10:55;-2.20;1.00
2657;DHT22;1338;48.176;11.792;2024-01-30T03:13:27;-2.10;1.00
2657;DHT22;1338;48.176;11.792;2024-01-30T03:15:57;-2.10;1.00
2657;DHT22;1338;48.176;11.792;2024-01-30T03:18:26;-2.10;1.00
2657;DHT22;1338;48.176;11.792;2024-01-30T03:20:56;-2.00;1.00
2657;DHT22;1338;48.176;11.792;2024-01-30T03:23:25;-2.00;1.00
2657;DHT22;1338;48.176;11.792;2024-01-30T03:25:54;-2.00;1.00
2657;DHT22;1338;48.176;11.792;2024-01-30T03:28:25;-1.90;1.00
2657;DHT22;1338;48.176;11.792;2024-01-30T03:30:54;-2.00;1.00
2657;DHT22;1338;48.176;11.792;2024-01-30T03:33:23;-1.90;1.00
2657;DHT22;1338;48.176;11.792;2024-01-30T03:35:53;-1.90;1.00
2657;DHT22;1338;48.176;11.792;2024-01-30T03:38:22;-1.90;1.00
2657;DHT22;1338;48.176;11.792;2024-01-30T03:40:55;-1.90;1.00
2657;DHT22;1338;48.176;11.792;2024-01-30T03:43:27;-2.10;1.00
2657;DHT22;1338;48.176;11.792;2024-01-30T03:45:56;-2.20;1.00
2657;DHT22;1338;48.176;11.792;2024-01-30T03:48:25;-2.20;1.00
2657;DHT22;1338;48.176;11.792;2024-01-30T03:50:56;-2.10;1.00
2657;DHT22;1338;48.176;11.792;2024-01-30T03:53:26;-2.10;1.00
2657;DHT22;1338;48.176;11.792;2024-01-30T03:55:55;-2.10;1.00
2657;DHT22;1338;48.176;11.792;2024-01-30T03:58:26;-2.00;1.00
2657;DHT22;1338;48.176;11.792;2024-01-30T04:00:55;-2.00;1.00
2657;DHT22;1338;48.176;11.792;2024-01-30T04:03:23;-2.00;1.00
2657;DHT22;1338;48.176;11.792;2024-01-30T04:05:52;-2.00;1.00
2657;DHT22;1338;48.176;11.792;2024-01-30T04:08:21;-1.90;1.00
2657;DHT22;1338;48.176;11.792;2024-01-30T04:10:50;-2.10;1.00
2657;DHT22;1338;48.176;11.792;2024-01-30T04:13:19;-2.20;1.00
2657;DHT22;1338;48.176;11.792;2024-01-30T04:15:49;-2.10;1.00
2657;DHT22;1338;48.176;11.792;2024-01-30T04:18:18;-2.10;1.00
2657;DHT22;1338;48.176;11.792;2024-01-30T04:20:48;-2.00;1.00
2657;DHT22;1338;48.176;11.792;2024-01-30T04:23:17;-2.10;1.00
2657;DHT22;1338;48.176;11.792;2024-01-30T04:25:47;-2.00;1.00
2657;DHT22;1338;48.176;11.792;2024-01-30T04:28:15;-1.90;1.00
2657;DHT22;1338;48.176;11.792;2024-01-30T04:30:44;-1.90;1.00
2657;DHT22;1338;48.176;11.792;2024-01-30T04:33:14;-2.00;1.00
2657;DHT22;1338;48.176;11.792;2024-01-30T04:35:46;-1.80;1.00
2657;DHT22;1338;48.176;11.792;2024-01-30T04:38:17;-1.80;1.00
2657;DHT22;1338;48.176;11.792;2024-01-30T04:40:49;-1.90;1.00
2657;DHT22;1338;48.176;11.792;2024-01-30T04:43:18;-1.90;1.00
2657;DHT22;1338;48.176;11.792;2024-01-30T04:45:48;-2.00;1.00
2657;DHT22;1338;48.176;11.792;2024-01-30T04:48:18;-2.00;1.00
2657;DHT22;1338;48.176;11.792;2024-01-30T04:50:46;-2.00;1.00
2657;DHT22;1338;48.176;11.792;2024-01-30T04:53:15;-1.80;99.90
2657;DHT22;1338;48.176;11.792;2024-01-30T04:55:44;-1.80;99.90
2657;DHT22;1338;48.176;11.792;2024-01-30T04:58:12;-1.70;99.90
2657;DHT22;1338;48.176;11.792;2024-01-30T05:00:44;-1.70;99.90
2657;DHT22;1338;48.176;11.792;2024-01-30T05:03:23;-1.80;99.90
2657;DHT22;1338;48.176;11.792;2024-01-30T05:05:52;-1.80;99.90
2657;DHT22;1338;48.176;11.792;2024-01-30T05:08:21;-1.90;99.90
2657;DHT22;1338;48.176;11.792;2024-01-30T05:10:50;-1.90;99.90
2657;DHT22;1338;48.176;11.792;2024-01-30T05:13:19;-1.90;99.90
2657;DHT22;1338;48.176;11.792;2024-01-30T05:15:48;-1.90;99.90
2657;DHT22;1338;48.176;11.792;2024-01-30T05:18:17;-1.80;99.90
2657;DHT22;1338;48.176;11.792;2024-01-30T05:20:49;-1.90;99.90
2657;DHT22;1338;48.176;11.792;2024-01-30T05:23:18;-1.70;99.90
2657;DHT22;1338;48.176;11.792;2024-01-30T05:25:47;-1.80;99.90
2657;DHT22;1338;48.176;11.792;2024-01-30T05:28:19;-1.80;99.90
2657;DHT22;1338;48.176;11.792;2024-01-30T05:30:48;-2.00;99.90
2657;DHT22;1338;48.176;11.792;2024-01-30T05:33:16;-2.00;99.90
2657;DHT22;1338;48.176;11.792;2024-01-30T05:35:45;-2.10;99.90
2657;DHT22;1338;48.176;11.792;2024-01-30T05:38:17;-2.20;99.90
2657;DHT22;1338;48.176;11.792;2024-01-30T05:40:45;-2.20;99.90
2657;DHT22;1338;48.176;11.792;2024-01-30T05:43:14;-2.20;99.90
2657;DHT22;1338;48.176;11.792;2024-01-30T05:45:43;-2.10;99.90
2657;DHT22;1338;48.176;11.792;2024-01-30T05:48:13;-2.10;99.90
2657;DHT22;1338;48.176;11.792;2024-01-30T05:50:45;-1.90;1.00
2657;DHT22;1338;48.176;11.792;2024-01-30T05:53:16;-2.00;1.00
2657;DHT22;1338;48.176;11.792;2024-01-30T05:55:44;-2.00;1.00
2657;DHT22;1338;48.176;11.792;2024-01-30T05:58:13;-1.90;99.90
2657;DHT22;1338;48.176;11.792;2024-01-30T06:00:42;-1.80;99.90
2657;DHT22;1338;48.176;11.792;2024-01-30T06:03:10;-1.80;99.90
2657;DHT22;1338;48.176;11.792;2024-01-30T06:05:40;-1.70;99.90
2657;DHT22;1338;48.176;11.792;2024-01-30T06:08:09;-1.70;99.90
2657;DHT22;1338;48.176;11.792;2024-01-30T06:10:39;-1.70;99.90
2657;DHT22;1338;48.176;11.792;2024-01-30T06:13:08;-1.60;99.90
2657;DHT22;1338;48.176;11.792;2024-01-30T06:15:40;-1.80;99.90
2657;DHT22;1338;48.176;11.792;2024-01-30T06:18:08;-1.70;99.90
2657;DHT22;1338;48.176;11.792;2024-01-30T06:20:38;-1.70;99.90
2657;DHT22;1338;48.176;11.792;2024-01-30T06:23:06;-1.70;99.90
2657;DHT22;1338;48.176;11.792;2024-01-30T06:25:36;-1.80;99.90
2657;DHT22;1338;48.176;11.792;2024-01-30T06:28:07;-1.90;99.90
2657;DHT22;1338;48.176;11.792;2024-01-30T06:30:38;-1.90;99.90
2657;DHT22;1338;48.176;11.792;2024-01-30T06:33:08;-1.70;99.90
2657;DHT22;1338;48.176;11.792;2024-01-30T06:35:40;-1.80;99.90
2657;DHT22;1338;48.176;11.792;2024-01-30T06:38:11;-1.80;99.90
2657;DHT22;1338;48.176;11.792;2024-01-30T06:40:40;-1.90;99.90
2657;DHT22;1338;48.176;11.792;2024-01-30T06:43:11;-1.90;99.90
2657;DHT22;1338;48.176;11.792;2024-01-30T06:45:41;-2.00;99.90
2657;DHT22;1338;48.176;11.792;2024-01-30T06:48:11;-2.00;99.90
2657;DHT22;1338;48.176;11.792;2024-01-30T06:50:44;-2.00;99.90
2657;DHT22;1338;48.176;11.792;2024-01-30T06:53:13;-2.00;99.90
2657;DHT22;1338;48.176;11.792;2024-01-30T06:55:42;-1.80;99.90
2657;DHT22;1338;48.176;11.792;2024-01-30T06:58:12;-1.80;99.90
2657;DHT22;1338;48.176;11.792;2024-01-30T07:00:41;-1.70;99.90
2657;DHT22;1338;48.176;11.792;2024-01-30T07:03:12;-1.70;99.90
2657;DHT22;1338;48.176;11.792;2024-01-30T07:05:41;-1.80;99.90
2657;DHT22;1338;48.176;11.792;2024-01-30T07:08:10;-1.80;99.90
2657;DHT22;1338;48.176;11.792;2024-01-30T07:10:39;-1.80;99.90
2657;DHT22;1338;48.176;11.792;2024-01-30T07:13:09;-1.70;99.90
2657;DHT22;1338;48.176;11.792;2024-01-30T07:15:39;-1.50;99.90
2657;DHT22;1338;48.176;11.792;2024-01-30T07:18:08;-1.60;99.90
2657;DHT22;1338;48.176;11.792;2024-01-30T07:20:38;-1.60;99.90
2657;DHT22;1338;48.176;11.792;2024-01-30T07:23:13;-1.60;99.90
2657;DHT22;1338;48.176;11.792;2024-01-30T07:25:45;0.40;99.90
2657;DHT22;1338;48.176;11.792;2024-01-30T07:28:17;3.30;1.00
2657;DHT22;1338;48.176;11.792;2024-01-30T07:30:48;1.10;99.90
2657;DHT22;1338;48.176;11.792;2024-01-30T07:33:22;-0.20;1.00
2657;DHT22;1338;48.176;11.792;2024-01-30T07:35:53;-0.70;1.00
2657;DHT22;1338;48.176;11.792;2024-01-30T07:38:28;-0.80;99.90
2657;DHT22;1338;48.176;11.792;2024-01-30T07:40:57;-0.90;99.90
2657;DHT22;1338;48.176;11.792;2024-01-30T07:43:26;-0.80;99.90
2657;DHT22;1338;48.176;11.792;2024-01-30T07:46:04;-0.80;99.90
2657;DHT22;1338;48.176;11.792;2024-01-30T07:48:35;-0.70;99.90
2657;DHT22;1338;48.176;11.792;2024-01-30T07:51:05;-0.70;99.90
2657;DHT22;1338;48.176;11.792;2024-01-30T07:53:35;-0.60;99.90
2657;DHT22;1338;48.176;11.792;2024-01-30T07:56:07;-0.50;99.90
2657;DHT22;1338;48.176;11.792;2024-01-30T07:58:36;-0.30;99.90
2657;DHT22;1338;48.176;11.792;2024-01-30T08:01:07;-0.40;99.90
2657;DHT22;1338;48.176;11.792;2024-01-30T08:03:35;-0.20;99.90
2657;DHT22;1338;48.176;11.792;2024-01-30T08:06:07;-0.10;99.90
2657;DHT22;1338;48.176;11.792;2024-01-30T08:08:37;0.00;97.30
2657;DHT22;1338;48.176;11.792;2024-01-30T08:11:06;0.20;59.50
2657;DHT22;1338;48.176;11.792;2024-01-30T08:13:35;0.30;31.80
2657;DHT22;1338;48.176;11.792;2024-01-30T08:16:04;0.40;11.70
2657;DHT22;1338;48.176;11.792;2024-01-30T08:18:38;0.40;11.20
2657;DHT22;1338;48.176;11.792;2024-01-30T08:21:09;0.50;4.80
2657;DHT22;1338;48.176;11.792;2024-01-30T08:23:38;0.70;15.20
2657;DHT22;1338;48.176;11.792;2024-01-30T08:26:06;0.80;3.80
2657;DHT22;1338;48.176;11.792;2024-01-30T08:28:35;0.80;1.00
2657;DHT22;1338;48.176;11.792;2024-01-30T08:31:05;1.00;1.00
2657;DHT22;1338;48.176;11.792;2024-01-30T08:33:34;1.10;1.00
2657;DHT22;1338;48.176;11.792;2024-01-30T08:36:07;1.30;1.00
2657;DHT22;1338;48.176;11.792;2024-01-30T08:38:36;1.50;1.00
2657;DHT22;1338;48.176;11.792;2024-01-30T08:41:04;1.50;1.00
2657;DHT22;1338;48.176;11.792;2024-01-30T08:43:34;1.60;1.00
2657;DHT22;1338;48.176;11.792;2024-01-30T08:46:04;1.70;1.00
2657;DHT22;1338;48.176;11.792;2024-01-30T08:48:33;1.70;1.00
2657;DHT22;1338;48.176;11.792;2024-01-30T08:51:02;1.80;1.00
2657;DHT22;1338;48.176;11.792;2024-01-30T08:53:36;1.90;1.00
2657;DHT22;1338;48.176;11.792;2024-01-30T08:56:06;2.10;1.00
2657;DHT22;1338;48.176;11.792;2024-01-30T08:58:37;2.20;1.00
2657;DHT22;1338;48.176;11.792;2024-01-30T09:01:07;2.40;1.00
2657;DHT22;1338;48.176;11.792;2024-01-30T09:03:39;2.50;1.00
2657;DHT22;1338;48.176;11.792;2024-01-30T09:06:11;2.70;1.00
2657;DHT22;1338;48.176;11.792;2024-01-30T09:08:41;2.90;1.00
2657;DHT22;1338;48.176;11.792;2024-01-30T09:11:11;2.80;1.00
2657;DHT22;1338;48.176;11.792;2024-01-30T09:13:39;2.70;1.00
2657;DHT22;1338;48.176;11.792;2024-01-30T09:16:07;2.90;1.00
2657;DHT22;1338;48.176;11.792;2024-01-30T09:18:37;3.20;1.00
2657;DHT22;1338;48.176;11.792;2024-01-30T09:21:07;3.00;1.00
2657;DHT22;1338;48.176;11.792;2024-01-30T09:23:36;3.20;1.00
2657;DHT22;1338;48.176;11.792;2024-01-30T09:26:08;3.20;1.00
2657;DHT22;1338;48.176;11.792;2024-01-30T09:28:37;3.50;1.00
2657;DHT22;1338;48.176;11.792;2024-01-30T09:31:10;3.60;1.00
2657;DHT22;1338;48.176;11.792;2024-01-30T09:33:43;3.40;1.00
2657;DHT22;1338;48.176;11.792;2024-01-30T09:36:15;3.30;1.00
2657;DHT22;1338;48.176;11.792;2024-01-30T09:38:45;3.50;1.00
2657;DHT22;1338;48.176;11.792;2024-01-30T09:41:19;3.50;1.00
2657;DHT22;1338;48.176;11.792;2024-01-30T09:43:48;3.70;1.00
2657;DHT22;1338;48.176;11.792;2024-01-30T09:46:18;4.10;1.00
2657;DHT22;1338;48.176;11.792;2024-01-30T09:48:50;4.20;1.00
2657;DHT22;1338;48.176;11.792;2024-01-30T09:51:20;4.10;1.00
2657;DHT22;1338;48.176;11.792;2024-01-30T09:53:49;4.00;1.00
2657;DHT22;1338;48.176;11.792;2024-01-30T09:56:23;3.90;1.00
2657;DHT22;1338;48.176;11.792;2024-01-30T09:58:54;4.50;1.00
2657;DHT22;1338;48.176;11.792;2024-01-30T10:01:23;5.40;1.00
2657;DHT22;1338;48.176;11.792;2024-01-30T10:03:55;5.10;1.00
2657;DHT22;1338;48.176;11.792;2024-01-30T10:06:30;4.70;1.00
2657;DHT22;1338;48.176;11.792;2024-01-30T10:08:59;5.20;1.00
2657;DHT22;1338;48.176;11.792;2024-01-30T10:11:29;4.40;1.00
2657;DHT22;1338;48.176;11.792;2024-01-30T10:13:59;4.40;1.00
2657;DHT22;1338;48.176;11.792;2024-01-30T10:16:30;4.30;1.00
2657;DHT22;1338;48.176;11.792;2024-01-30T10:18:59;5.40;1.00
2657;DHT22;1338;48.176;11.792;2024-01-30T10:21:29;5.30;1.00
2657;DHT22;1338;48.176;11.792;2024-01-30T10:23:58;4.70;1.00
2657;DHT22;1338;48.176;11.792;2024-01-30T10:26:31;4.60;1.00
2657;DHT22;1338;48.176;11.792;2024-01-30T10:29:01;6.30;1.00
2657;DHT22;1338;48.176;11.792;2024-01-30T10:31:30;6.60;1.00
2657;DHT22;1338;48.176;11.792;2024-01-30T10:33:58;5.90;1.00
2657;DHT22;1338;48.176;11.792;2024-01-30T10:36:43;5.90;1.00
2657;DHT22;1338;48.176;11.792;2024-01-30T10:39:19;6.10;1.00
2657;DHT22;1338;48.176;11.792;2024-01-30T10:41:52;7.00;1.00
2657;DHT22;1338;48.176;11.792;2024-01-30T10:44:23;7.70;1.00
2657;DHT22;1338;48.176;11.792;2024-01-30T10:46:58;7.60;1.00
2657;DHT22;1338;48.176;11.792;2024-01-30T10:49:28;7.90;1.00
2657;DHT22;1338;48.176;11.792;2024-01-30T10:51:58;7.70;1.00
2657;DHT22;1338;48.176;11.792;2024-01-30T10:54:29;8.30;1.00
2657;DHT22;1338;48.176;11.792;2024-01-30T10:57:03;8.50;1.00
2657;DHT22;1338;48.176;11.792;2024-01-30T10:59:34;7.50;1.00
2657;DHT22;1338;48.176;11.792;2024-01-30T11:02:03;8.30;1.00
2657;DHT22;1338;48.176;11.792;2024-01-30T11:04:37;8.60;1.00
2657;DHT22;1338;48.176;11.792;2024-01-30T11:07:14;8.70;1.00
2657;DHT22;1338;48.176;11.792;2024-01-30T11:09:50;9.00;99.90
2657;DHT22;1338;48.176;11.792;2024-01-30T11:12:26;8.60;99.90
2657;DHT22;1338;48.176;11.792;2024-01-30T11:15:07;6.60;1.00
2657;DHT22;1338;48.176;11.792;2024-01-30T11:17:43;6.20;1.00
2657;DHT22;1338;48.176;11.792;2024-01-30T11:20:15;6.30;1.00
2657;DHT22;1338;48.176;11.792;2024-01-30T11:22:52;6.60;1.00
2657;DHT22;1338;48.176;11.792;2024-01-30T11:25:24;6.80;1.00
2657;DHT22;1338;48.176;11.792;2024-01-30T11:28:14;6.80;1.00
2657;DHT22;1338;48.176;11.792;2024-01-30T11:30:47;7.00;1.00
2657;DHT22;1338;48.176;11.792;2024-01-30T11:33:29;6.40;1.00
2657;DHT22;1338;48.176;11.792;2024-01-30T11:36:01;6.30;1.00
2657;DHT22;1338;48.176;11.792;2024-01-30T11:38:42;6.40;1.00
2657;DHT22;1338;48.176;11.792;2024-01-30T11:41:13;6.40;1.00
2657;DHT22;1338;48.176;11.792;2024-01-30T11:43:52;6.40;1.00
2657;DHT22;1338;48.176;11.792;2024-01-30T11:46:25;6.50;1.00
2657;DHT22;1338;48.176;11.792;2024-01-30T11:48:54;6.60;1.00
2657;DHT22;1338;48.176;11.792;2024-01-30T11:51:23;7.10;1.00
2657;DHT22;1338;48.176;11.792;2024-01-30T11:53:52;7.30;1.00
2657;DHT22;1338;48.176;11.792;2024-01-30T11:56:21;8.30;1.00
2657;DHT22;1338;48.176;11.792;2024-01-30T11:58:55;7.80;1.00
2657;DHT22;1338;48.176;11.792;2024-01-30T12:01:26;8.20;1.00
2657;DHT22;1338;48.176;11.792;2024-01-30T12:04:02;8.50;1.00
2657;DHT22;1338;48.176;11.792;2024-01-30T12:06:38;9.00;1.00
2657;DHT22;1338;48.176;11.792;2024-01-30T12:09:09;9.50;1.00
2657;DHT22;1338;48.176;11.792;2024-01-30T12:11:44;10.60;1.00
2657;DHT22;1338;48.176;11.792;2024-01-30T12:14:20;10.90;99.90
2657;DHT22;1338;48.176;11.792;2024-01-30T12:16:54;11.20;99.90
2657;DHT22;1338;48.176;11.792;2024-01-30T12:19:23;11.60;99.90
2657;DHT22;1338;48.176;11.792;2024-01-30T12:21:55;11.10;99.90
2657;DHT22;1338;48.176;11.792;2024-01-30T12:24:27;10.80;99.90
2657;DHT22;1338;48.176;11.792;2024-01-30T12:26:58;10.90;99.90
2657;DHT22;1338;48.176;11.792;2024-01-30T12:29:33;12.60;99.90
2657;DHT22;1338;48.176;11.792;2024-01-30T12:32:06;12.50;99.90
2657;DHT22;1338;48.176;11.792;2024-01-30T12:34:40;12.40;99.90
2657;DHT22;1338;48.176;11.792;2024-01-30T12:37:27;12.10;99.90
2657;DHT22;1338;48.176;11.792;2024-01-30T12:39:57;12.80;99.90
2657;DHT22;1338;48.176;11.792;2024-01-30T12:42:27;12.30;99.90
2657;DHT22;1338;48.176;11.792;2024-01-30T12:44:59;12.00;99.90
2657;DHT22;1338;48.176;11.792;2024-01-30T12:47:28;12.40;99.90
2657;DHT22;1338;48.176;11.792;2024-01-30T12:50:05;12.60;99.90
2657;DHT22;1338;48.176;11.792;2024-01-30T12:52:43;12.90;99.90
2657;DHT22;1338;48.176;11.792;2024-01-30T12:55:16;13.10;99.90
2657;DHT22;1338;48.176;11.792;2024-01-30T12:57:45;13.30;99.90
2657;DHT22;1338;48.176;11.792;2024-01-30T13:00:15;13.90;99.90
2657;DHT22;1338;48.176;11.792;2024-01-30T13:02:45;14.20;99.90
2657;DHT22;1338;48.176;11.792;2024-01-30T13:05:14;13.10;99.90
2657;DHT22;1338;48.176;11.792;2024-01-30T13:07:45;11.80;99.90
2657;DHT22;1338;48.176;11.792;2024-01-30T13:10:15;10.60;99.90
2657;DHT22;1338;48.176;11.792;2024-01-30T13:12:46;11.00;99.90
2657;DHT22;1338;48.176;11.792;2024-01-30T13:15:16;13.50;99.90
2657;DHT22;1338;48.176;11.792;2024-01-30T13:17:44;16.30;99.90
2657;DHT22;1338;48.176;11.792;2024-01-30T13:20:15;16.50;99.90
2657;DHT22;1338;48.176;11.792;2024-01-30T13:22:48;16.20;99.90
2657;DHT22;1338;48.176;11.792;2024-01-30T13:25:20;15.10;99.90
2657;DHT22;1338;48.176;11.792;2024-01-30T13:27:49;15.40;99.90
2657;DHT22;1338;48.176;11.792;2024-01-30T13:30:22;14.70;99.90
2657;DHT22;1338;48.176;11.792;2024-01-30T13:32:52;15.00;99.90
2657;DHT22;1338;48.176;11.792;2024-01-30T13:35:21;15.10;99.90
2657;DHT22;1338;48.176;11.792;2024-01-30T13:37:50;14.90;99.90
2657;DHT22;1338;48.176;11.792;2024-01-30T13:40:26;14.90;99.90
2657;DHT22;1338;48.176;11.792;2024-01-30T13:42:56;15.10;99.90
2657;DHT22;1338;48.176;11.792;2024-01-30T13:45:29;15.50;99.90
2657;DHT22;1338;48.176;11.792;2024-01-30T13:47:58;14.10;99.90
2657;DHT22;1338;48.176;11.792;2024-01-30T13:50:26;15.50;99.90
2657;DHT22;1338;48.176;11.792;2024-01-30T13:52:56;14.40;99.90
2657;DHT22;1338;48.176;11.792;2024-01-30T13:55:33;13.10;99.90
2657;DHT22;1338;48.176;11.792;2024-01-30T13:58:02;13.90;99.90
2657;DHT22;1338;48.176;11.792;2024-01-30T14:00:34;14.70;99.90
2657;DHT22;1338;48.176;11.792;2024-01-30T14:03:03;15.70;99.90
2657;DHT22;1338;48.176;11.792;2024-01-30T14:05:32;15.90;99.90
2657;DHT22;1338;48.176;11.792;2024-01-30T14:08:04;15.00;99.90
2657;DHT22;1338;48.176;11.792;2024-01-30T14:10:34;16.00;99.90
2657;DHT22;1338;48.176;11.792;2024-01-30T14:13:04;16.20;99.90
2657;DHT22;1338;48.176;11.792;2024-01-30T14:15:38;15.40;99.90
2657;DHT22;1338;48.176;11.792;2024-01-30T14:18:07;15.20;99.90
2657;DHT22;1338;48.176;11.792;2024-01-30T14:20:36;14.30;99.90
2657;DHT22;1338;48.176;11.792;2024-01-30T14:23:07;14.20;99.90
2657;DHT22;1338;48.176;11.792;2024-01-30T14:25:36;15.40;99.90
2657;DHT22;1338;48.176;11.792;2024-01-30T14:28:05;14.50;99.90
2657;DHT22;1338;48.176;11.792;2024-01-30T14:30:39;13.70;99.90
2657;DHT22;1338;48.176;11.792;2024-01-30T14:33:09;13.10;99.90
2657;DHT22;1338;48.176;11.792;2024-01-30T14:35:38;14.30;99.90
2657;DHT22;1338;48.176;11.792;2024-01-30T14:38:06;14.50;99.90
2657;DHT22;1338;48.176;11.792;2024-01-30T14:40:38;14.10;99.90
2657;DHT22;1338;48.176;11.792;2024-01-30T14:43:07;14.60;99.90
2657;DHT22;1338;48.176;11.792;2024-01-30T14:45:39;14.00;99.90
2657;DHT22;1338;48.176;11.792;2024-01-30T14:48:09;13.70;99.90
2657;DHT22;1338;48.176;11.792;2024-01-30T14:50:37;14.10;99.90
2657;DHT22;1338;48.176;11.792;2024-01-30T14:53:06;13.50;99.90
2657;DHT22;1338;48.176;11.792;2024-01-30T14:55:36;13.00;99.90
2657;DHT22;1338;48.176;11.792;2024-01-30T14:58:07;13.30;99.90
2657;DHT22;1338;48.176;11.792;2024-01-30T15:00:52;13.80;99.90
2657;DHT22;1338;48.176;11.792;2024-01-30T15:03:48;13.70;99.90
2657;DHT22;1338;48.176;11.792;2024-01-30T15:06:19;14.20;99.90
2657;DHT22;1338;48.176;11.792;2024-01-30T15:08:56;14.20;99.90
2657;DHT22;1338;48.176;11.792;2024-01-30T15:11:29;14.30;99.90
2657;DHT22;1338;48.176;11.792;2024-01-30T15:14:01;13.80;99.90
2657;DHT22;1338;48.176;11.792;2024-01-30T15:16:32;13.20;99.90
2657;DHT22;1338;48.176;11.792;2024-01-30T15:19:00;13.20;99.90
2657;DHT22;1338;48.176;11.792;2024-01-30T15:21:32;13.00;99.90
2657;DHT22;1338;48.176;11.792;2024-01-30T15:24:04;12.80;99.90
2657;DHT22;1338;48.176;11.792;2024-01-30T15:26:33;12.50;99.90
2657;DHT22;1338;48.176;11.792;2024-01-30T15:29:03;12.10;99.90
2657;DHT22;1338;48.176;11.792;2024-01-30T15:31:37;11.70;99.90
2657;DHT22;1338;48.176;11.792;2024-01-30T15:34:07;12.10;99.90
2657;DHT22;1338;48.176;11.792;2024-01-30T15:36:38;11.60;99.90
2657;DHT22;1338;48.176;11.792;2024-01-30T15:39:07;11.00;99.90
2657;DHT22;1338;48.176;11.792;2024-01-30T15:41:37;11.20;99.90
2657;DHT22;1338;48.176;11.792;2024-01-30T15:44:07;11.00;99.90
2657;DHT22;1338;48.176;11.792;2024-01-30T15:46:37;10.30;99.90
2657;DHT22;1338;48.176;11.792;2024-01-30T15:49:05;10.40;99.90
2657;DHT22;1338;48.176;11.792;2024-01-30T15:51:35;10.20;99.90
2657;DHT22;1338;48.176;11.792;2024-01-30T15:54:03;9.90;99.90
2657;DHT22;1338;48.176;11.792;2024-01-30T15:56:40;10.20;99.90
2657;DHT22;1338;48.176;11.792;2024-01-30T15:59:15;9.80;99.90
2657;DHT22;1338;48.176;11.792;2024-01-30T16:01:45;9.30;99.90
2657;DHT22;1338;48.176;11.792;2024-01-30T16:04:17;8.90;99.90
2657;DHT22;1338;48.176;11.792;2024-01-30T16:06:47;9.30;99.90
2657;DHT22;1338;48.176;11.792;2024-01-30T16:09:16;8.90;99.90
2657;DHT22;1338;48.176;11.792;2024-01-30T16:11:46;8.80;99.90
2657;DHT22;1338;48.176;11.792;2024-01-30T16:14:18;8.50;99.90
2657;DHT22;1338;48.176;11.792;2024-01-30T16:16:49;8.10;99.90
2657;DHT22;1338;48.176;11.792;2024-01-30T16:19:17;7.90;99.90